createdAt,value
2019-01-24T00:00:48.802Z,26.68
2019-01-24T00:01:53.977Z,27.20
2019-01-24T00:02:59.025Z,26.60
2019-01-24T00:04:04.210Z,29.60
2019-01-24T00:05:09.300Z,27.95
2019-01-24T00:06:14.354Z,27.27
2019-01-24T00:07:19.823Z,27.35
2019-01-24T00:08:24.823Z,29.57
2019-01-24T00:09:30.756Z,29.25
2019-01-24T00:10:36.434Z,25.27
2019-01-24T00:11:41.505Z,27.55
2019-01-24T00:12:46.525Z,24.70
2019-01-24T00:13:51.532Z,28.00
2019-01-24T00:14:56.570Z,28.12
2019-01-24T00:16:01.822Z,22.25
2019-01-24T00:17:07.441Z,27.22
2019-01-24T00:18:12.844Z,27.60
2019-01-24T00:19:18.200Z,31.12
2019-01-24T00:20:23.599Z,29.57
2019-01-24T00:21:28.526Z,29.67
2019-01-24T00:22:33.895Z,27.10
2019-01-24T00:23:39.151Z,27.20
2019-01-24T00:24:44.195Z,27.85
2019-01-24T00:25:49.851Z,27.60
2019-01-24T00:26:54.822Z,28.45
2019-01-24T00:27:59.871Z,25.65
2019-01-24T00:29:04.976Z,27.80
2019-01-24T00:30:11.079Z,27.73
2019-01-24T00:31:16.118Z,28.10
2019-01-24T00:32:21.775Z,26.80
2019-01-24T00:33:26.804Z,27.80
2019-01-24T00:34:31.857Z,31.25
2019-01-24T00:35:39.846Z,28.77
2019-01-24T00:36:45.219Z,28.23
2019-01-24T00:37:50.206Z,25.97
2019-01-24T00:38:55.303Z,26.62
2019-01-24T00:40:00.257Z,26.42
2019-01-24T00:41:05.696Z,27.27
2019-01-24T00:42:10.808Z,26.35
2019-01-24T00:43:15.816Z,29.07
2019-01-24T00:44:20.739Z,26.35
2019-01-24T00:45:25.746Z,26.10
2019-01-24T00:46:30.764Z,28.30
2019-01-24T00:47:36.226Z,27.22
2019-01-24T00:48:41.537Z,25.12
2019-01-24T00:49:46.587Z,27.52
2019-01-24T00:50:51.526Z,25.37
2019-01-24T00:51:56.778Z,26.90
2019-01-24T00:53:02.225Z,26.95
2019-01-24T00:54:07.229Z,27.10
2019-01-24T00:55:13.887Z,27.13
2019-01-24T00:56:18.919Z,28.23
2019-01-24T00:57:24.157Z,27.90
2019-01-24T00:58:29.435Z,28.38
2019-01-24T00:59:34.485Z,28.05
2019-01-24T01:00:39.593Z,26.95
2019-01-24T01:01:44.984Z,28.60
2019-01-24T01:02:50.378Z,26.35
2019-01-24T01:03:55.785Z,29.77
2019-01-24T01:05:00.715Z,27.40
2019-01-24T01:06:07.078Z,27.42
2019-01-24T01:07:12.105Z,28.70
2019-01-24T01:08:17.535Z,26.50
2019-01-24T01:09:22.789Z,23.95
2019-01-24T01:10:28.816Z,25.37
2019-01-24T01:11:33.829Z,27.93
2019-01-24T01:12:39.275Z,23.00
2019-01-24T01:13:44.335Z,28.15
2019-01-24T01:14:49.684Z,27.98
2019-01-24T01:15:54.688Z,26.57
2019-01-24T01:17:00.230Z,27.37
2019-01-24T01:18:05.910Z,28.62
2019-01-24T01:19:11.094Z,27.40
2019-01-24T01:20:18.478Z,27.65
2019-01-24T01:21:23.875Z,28.42
2019-01-24T01:22:28.890Z,27.52
2019-01-24T01:23:33.919Z,28.35
2019-01-24T01:24:39.047Z,29.55
2019-01-24T01:25:44.136Z,23.85
2019-01-24T01:26:49.165Z,29.35
2019-01-24T01:27:54.218Z,27.70
2019-01-24T01:28:59.292Z,26.25
2019-01-24T01:30:06.254Z,30.50
2019-01-24T01:31:11.349Z,27.32
2019-01-24T01:32:16.659Z,29.90
2019-01-24T01:33:21.699Z,28.80
2019-01-24T01:34:26.744Z,29.27
2019-01-24T01:35:31.756Z,30.37
2019-01-24T01:36:36.733Z,29.80
2019-01-24T01:37:42.095Z,28.92
2019-01-24T01:38:47.032Z,29.18
2019-01-24T01:39:52.357Z,27.58
2019-01-24T01:40:57.277Z,30.70
2019-01-24T01:42:02.651Z,30.70
2019-01-24T01:43:07.753Z,30.72
2019-01-24T01:44:12.736Z,31.05
2019-01-24T01:45:19.901Z,31.00
2019-01-24T01:46:24.833Z,27.25
2019-01-24T01:47:29.772Z,30.37
2019-01-24T01:48:35.087Z,28.92
2019-01-24T01:49:40.477Z,28.40
2019-01-24T01:50:45.947Z,28.80
2019-01-24T01:51:50.923Z,27.67
2019-01-24T01:52:56.023Z,27.65
2019-01-24T01:54:00.925Z,30.50
2019-01-24T01:55:06.387Z,27.77
2019-01-24T01:56:11.402Z,29.23
2019-01-24T01:57:16.374Z,29.95
2019-01-24T01:58:21.669Z,30.15
2019-01-24T01:59:26.651Z,31.02
2019-01-24T02:00:31.714Z,29.95
2019-01-24T02:01:37.074Z,28.20
2019-01-24T02:02:42.115Z,29.15
2019-01-24T02:03:47.135Z,29.02
2019-01-24T02:04:52.138Z,29.72
2019-01-24T02:05:57.052Z,29.30
2019-01-24T02:07:02.307Z,28.95
2019-01-24T02:08:07.817Z,27.80
2019-01-24T02:09:12.881Z,28.67
2019-01-24T02:10:20.394Z,28.92
2019-01-24T02:11:25.471Z,29.15
2019-01-24T02:12:31.446Z,29.25
2019-01-24T02:13:36.735Z,29.55
2019-01-24T02:14:41.803Z,27.40
2019-01-24T02:15:47.504Z,26.00
2019-01-24T02:16:52.791Z,27.00
2019-01-24T02:17:57.797Z,28.80
2019-01-24T02:19:02.785Z,28.02
2019-01-24T02:20:10.812Z,25.40
2019-01-24T02:21:16.191Z,27.67
2019-01-24T02:22:21.379Z,29.15
2019-01-24T02:23:26.393Z,27.00
2019-01-24T02:24:31.327Z,28.80
2019-01-24T02:25:36.676Z,28.27
2019-01-24T02:26:41.775Z,26.80
2019-01-24T02:27:46.863Z,28.47
2019-01-24T02:28:51.889Z,29.60
2019-01-24T02:29:56.915Z,26.35
2019-01-24T02:31:01.981Z,28.52
2019-01-24T02:32:07.564Z,28.38
2019-01-24T02:33:12.509Z,27.17
2019-01-24T02:34:17.925Z,28.62
2019-01-24T02:35:22.997Z,27.73
2019-01-24T02:36:28.305Z,28.38
2019-01-24T02:37:33.231Z,28.70
2019-01-24T02:38:38.596Z,27.48
2019-01-24T02:39:43.571Z,28.50
2019-01-24T02:40:48.601Z,22.80
2019-01-24T02:41:53.688Z,27.30
2019-01-24T02:42:58.781Z,26.90
2019-01-24T02:44:04.198Z,27.30
2019-01-24T02:45:11.924Z,26.90
2019-01-24T02:46:17.167Z,27.22
2019-01-24T02:47:22.940Z,26.15
2019-01-24T02:48:27.849Z,26.05
2019-01-24T02:49:33.228Z,28.17
2019-01-24T02:50:38.423Z,25.90
2019-01-24T02:51:43.449Z,25.75
2019-01-24T02:52:48.923Z,28.45
2019-01-24T02:53:53.883Z,25.97
2019-01-24T02:54:59.162Z,26.15
2019-01-24T02:56:04.801Z,28.10
2019-01-24T02:57:09.935Z,26.60
2019-01-24T02:58:14.974Z,27.48
2019-01-24T02:59:20.030Z,27.67
2019-01-24T03:00:26.921Z,27.82
2019-01-24T03:01:31.860Z,26.37
2019-01-24T03:02:36.865Z,25.88
2019-01-24T03:03:42.090Z,29.40
2019-01-24T03:04:47.179Z,25.68
2019-01-24T03:05:52.079Z,29.02
2019-01-24T03:06:57.429Z,28.25
2019-01-24T03:08:02.467Z,27.17
2019-01-24T03:09:07.985Z,27.30
2019-01-24T03:10:13.870Z,25.45
2019-01-24T03:11:19.125Z,27.13
2019-01-24T03:12:24.209Z,27.37
2019-01-24T03:13:29.477Z,26.00
2019-01-24T03:14:35.249Z,29.45
2019-01-24T03:15:40.541Z,29.75
2019-01-24T03:16:45.620Z,28.20
2019-01-24T03:17:50.905Z,27.60
2019-01-24T03:18:56.507Z,28.30
2019-01-24T03:20:01.782Z,29.92
2019-01-24T03:21:06.872Z,29.85
2019-01-24T03:22:12.224Z,27.32
2019-01-24T03:23:17.551Z,28.52
2019-01-24T03:24:22.498Z,29.18
2019-01-24T03:25:27.944Z,26.27
2019-01-24T03:26:33.019Z,26.60
2019-01-24T03:27:38.172Z,27.22
2019-01-24T03:28:43.087Z,26.23
2019-01-24T03:29:49.110Z,27.25
2019-01-24T03:30:54.115Z,28.57
2019-01-24T03:31:59.480Z,29.95
2019-01-24T03:33:04.517Z,27.10
2019-01-24T03:34:09.383Z,29.63
2019-01-24T03:35:16.933Z,28.35
2019-01-24T03:36:22.018Z,27.90
2019-01-24T03:37:26.932Z,29.00
2019-01-24T03:38:31.944Z,28.70
2019-01-24T03:39:37.797Z,27.65
2019-01-24T03:40:42.895Z,28.65
2019-01-24T03:41:48.307Z,27.07
2019-01-24T03:42:53.441Z,28.35
2019-01-24T03:43:58.393Z,29.42
2019-01-24T03:45:05.062Z,29.02
2019-01-24T03:46:10.054Z,27.95
2019-01-24T03:47:15.786Z,27.70
2019-01-24T03:48:21.467Z,29.05
2019-01-24T03:49:26.390Z,27.73
2019-01-24T03:50:32.324Z,28.70
2019-01-24T03:51:37.282Z,27.67
2019-01-24T03:52:42.308Z,29.15
2019-01-24T03:53:47.305Z,28.02
2019-01-24T03:54:52.883Z,30.45
2019-01-24T03:55:58.603Z,29.52
2019-01-24T03:57:03.516Z,27.40
2019-01-24T03:58:08.850Z,29.63
2019-01-24T03:59:13.781Z,24.70
2019-01-24T04:00:21.552Z,27.48
2019-01-24T04:01:26.563Z,26.77
2019-01-24T04:02:32.237Z,30.00
2019-01-24T04:03:37.381Z,27.70
2019-01-24T04:04:42.784Z,25.75
2019-01-24T04:05:47.880Z,28.07
2019-01-24T04:06:52.902Z,30.43
2019-01-24T04:07:58.246Z,28.27
2019-01-24T04:09:05.526Z,26.62
2019-01-24T04:10:13.148Z,29.00
2019-01-24T04:11:18.456Z,29.95
2019-01-24T04:12:23.412Z,29.80
2019-01-24T04:13:28.418Z,25.05
2019-01-24T04:14:33.368Z,27.85
2019-01-24T04:15:38.437Z,28.38
2019-01-24T04:16:44.695Z,28.95
2019-01-24T04:17:49.972Z,26.45
2019-01-24T04:18:55.244Z,28.35
2019-01-24T04:20:00.280Z,30.10
2019-01-24T04:21:05.676Z,27.20
2019-01-24T04:22:11.627Z,26.70
2019-01-24T04:23:17.083Z,29.27
2019-01-24T04:24:22.009Z,29.45
2019-01-24T04:25:26.963Z,28.47
2019-01-24T04:26:32.240Z,27.37
2019-01-24T04:27:37.248Z,28.47
2019-01-24T04:28:42.533Z,26.10
2019-01-24T04:29:47.436Z,28.15
2019-01-24T04:30:53.117Z,23.50
2019-01-24T04:31:58.117Z,27.32
2019-01-24T04:33:03.436Z,28.77
2019-01-24T04:34:08.418Z,28.52
2019-01-24T04:35:19.704Z,26.75
2019-01-24T04:36:21.244Z,27.48
2019-01-24T04:37:26.223Z,27.60
2019-01-24T04:38:31.424Z,28.02
2019-01-24T04:39:36.438Z,28.42
2019-01-24T04:40:41.434Z,29.35
2019-01-24T04:41:46.391Z,29.07
2019-01-24T04:42:51.553Z,27.50
2019-01-24T04:43:56.933Z,27.05
2019-01-24T04:45:01.883Z,29.90
2019-01-24T04:46:06.884Z,29.32
2019-01-24T04:47:11.903Z,28.38
2019-01-24T04:48:16.814Z,29.25
2019-01-24T04:49:21.858Z,30.80
2019-01-24T04:50:26.864Z,30.32
2019-01-24T04:51:32.195Z,31.00
2019-01-24T04:52:37.292Z,29.90
2019-01-24T04:53:42.199Z,29.18
2019-01-24T04:54:47.121Z,28.00
2019-01-24T04:55:52.359Z,29.95
2019-01-24T04:56:57.731Z,29.35
2019-01-24T04:58:02.989Z,29.63
2019-01-24T04:59:08.519Z,31.20
2019-01-24T05:00:27.952Z,28.67
2019-01-24T05:01:32.939Z,27.77
2019-01-24T05:02:37.946Z,26.87
2019-01-24T05:03:42.877Z,29.37
2019-01-24T05:04:47.914Z,28.52
2019-01-24T05:05:52.868Z,31.37
2019-01-24T05:06:57.993Z,32.98
2019-01-24T05:08:03.309Z,35.58
2019-01-24T05:09:08.905Z,29.95
2019-01-24T05:10:14.538Z,34.27
2019-01-24T05:11:19.467Z,29.65
2019-01-24T05:12:24.382Z,32.67
2019-01-24T05:13:29.297Z,32.20
2019-01-24T05:14:34.584Z,32.90
2019-01-24T05:15:39.683Z,31.45
2019-01-24T05:16:44.654Z,29.27
2019-01-24T05:17:49.638Z,30.43
2019-01-24T05:18:55.822Z,30.15
2019-01-24T05:20:00.789Z,31.35
2019-01-24T05:21:06.463Z,31.48
2019-01-24T05:22:11.377Z,29.95
2019-01-24T05:23:16.645Z,31.00
2019-01-24T05:24:21.829Z,30.57
2019-01-24T05:25:26.893Z,29.48
2019-01-24T05:26:32.151Z,19.70
2019-01-24T05:27:37.535Z,29.30
2019-01-24T05:28:42.461Z,29.95
2019-01-24T05:29:47.393Z,29.50
2019-01-24T05:30:52.495Z,29.52
2019-01-24T05:31:57.841Z,31.45
2019-01-24T05:33:03.152Z,28.75
2019-01-24T05:34:08.841Z,32.00
2019-01-24T05:35:14.438Z,31.55
2019-01-24T05:36:19.432Z,30.25
2019-01-24T05:37:24.790Z,30.80
2019-01-24T05:38:30.058Z,30.17
2019-01-24T05:39:35.099Z,33.20
2019-01-24T05:40:40.452Z,30.92
2019-01-24T05:41:45.529Z,30.68
2019-01-24T05:42:50.526Z,31.93
2019-01-24T05:43:56.002Z,30.88
2019-01-24T05:45:01.246Z,31.82
2019-01-24T05:46:06.278Z,30.27
2019-01-24T05:47:11.613Z,32.00
2019-01-24T05:48:17.086Z,33.70
2019-01-24T05:49:22.385Z,30.02
2019-01-24T05:50:27.849Z,27.95
2019-01-24T05:51:33.146Z,30.82
2019-01-24T05:52:38.616Z,30.55
2019-01-24T05:53:43.845Z,31.00
2019-01-24T05:54:48.882Z,30.10
2019-01-24T05:55:53.811Z,29.52
2019-01-24T05:56:58.784Z,29.15
2019-01-24T05:58:03.924Z,32.48
2019-01-24T05:59:09.230Z,32.38
2019-01-24T06:00:19.952Z,31.48
2019-01-24T06:01:25.948Z,31.82
2019-01-24T06:02:30.990Z,32.90
2019-01-24T06:03:36.120Z,29.55
2019-01-24T06:04:45.423Z,31.93
2019-01-24T06:05:50.405Z,32.70
2019-01-24T06:06:55.378Z,32.15
2019-01-24T06:08:00.695Z,31.20
2019-01-24T06:09:08.027Z,34.25
2019-01-24T06:10:14.358Z,32.03
2019-01-24T06:11:19.586Z,32.45
2019-01-24T06:12:24.518Z,31.45
2019-01-24T06:13:29.866Z,28.65
2019-01-24T06:14:35.230Z,26.33
2019-01-24T06:15:40.545Z,28.77
2019-01-24T06:16:45.834Z,32.08
2019-01-24T06:17:51.189Z,29.72
2019-01-24T06:18:56.273Z,27.37
2019-01-24T06:20:01.366Z,34.25
2019-01-24T06:21:07.655Z,31.27
2019-01-24T06:22:12.716Z,34.70
2019-01-24T06:23:17.808Z,34.03
2019-01-24T06:24:22.827Z,32.55
2019-01-24T06:25:27.851Z,29.02
2019-01-24T06:26:33.224Z,29.75
2019-01-24T06:27:38.518Z,35.25
2019-01-24T06:28:43.575Z,35.23
2019-01-24T06:29:48.516Z,33.42
2019-01-24T06:30:53.590Z,34.30
2019-01-24T06:31:58.596Z,33.40
2019-01-24T06:33:04.004Z,31.37
2019-01-24T06:34:09.071Z,32.53
2019-01-24T06:35:14.278Z,33.70
2019-01-24T06:36:19.600Z,31.80
2019-01-24T06:37:24.646Z,31.85
2019-01-24T06:38:29.831Z,30.95
2019-01-24T06:39:34.733Z,33.95
2019-01-24T06:40:40.109Z,32.70
2019-01-24T06:41:45.861Z,31.45
2019-01-24T06:42:51.128Z,30.48
2019-01-24T06:43:56.146Z,32.00
2019-01-24T06:45:01.318Z,32.17
2019-01-24T06:46:06.506Z,31.90
2019-01-24T06:47:11.549Z,32.58
2019-01-24T06:48:16.765Z,32.08
2019-01-24T06:49:21.723Z,31.25
2019-01-24T06:50:27.360Z,30.55
2019-01-24T06:51:32.633Z,31.85
2019-01-24T06:52:37.745Z,32.50
2019-01-24T06:53:42.929Z,30.00
2019-01-24T06:54:48.235Z,29.00
2019-01-24T06:55:53.506Z,33.42
2019-01-24T06:56:58.904Z,24.52
2019-01-24T06:58:04.350Z,31.20
2019-01-24T06:59:09.351Z,30.00
2019-01-24T07:00:16.603Z,32.88
2019-01-24T07:01:22.083Z,33.25
2019-01-24T07:02:27.510Z,32.20
2019-01-24T07:03:32.486Z,31.50
2019-01-24T07:04:37.466Z,32.10
2019-01-24T07:05:43.221Z,31.65
2019-01-24T07:06:48.545Z,32.53
2019-01-24T07:07:53.644Z,30.92
2019-01-24T07:08:58.983Z,34.30
2019-01-24T07:10:04.627Z,31.65
2019-01-24T07:11:09.645Z,30.17
2019-01-24T07:12:15.081Z,26.55
2019-01-24T07:13:20.262Z,29.67
2019-01-24T07:14:25.547Z,30.55
2019-01-24T07:15:30.736Z,31.50
2019-01-24T07:16:35.814Z,31.48
2019-01-24T07:17:41.794Z,32.35
2019-01-24T07:18:47.024Z,32.13
2019-01-24T07:19:51.997Z,32.13
2019-01-24T07:20:57.294Z,31.00
2019-01-24T07:22:02.755Z,33.42
2019-01-24T07:23:08.652Z,30.90
2019-01-24T07:24:13.624Z,30.82
2019-01-24T07:25:23.880Z,32.95
2019-01-24T07:26:28.956Z,29.63
2019-01-24T07:27:33.979Z,33.30
2019-01-24T07:28:38.906Z,29.72
2019-01-24T07:29:44.500Z,29.82
2019-01-24T07:30:49.624Z,30.60
2019-01-24T07:31:54.597Z,32.60
2019-01-24T07:32:59.752Z,31.05
2019-01-24T07:34:05.247Z,31.30
2019-01-24T07:35:12.801Z,33.15
2019-01-24T07:36:17.869Z,31.48
2019-01-24T07:37:23.527Z,34.00
2019-01-24T07:38:28.906Z,33.40
2019-01-24T07:39:34.236Z,33.13
2019-01-24T07:40:39.523Z,32.33
2019-01-24T07:41:44.615Z,32.30
2019-01-24T07:42:51.472Z,34.88
2019-01-24T07:43:56.431Z,33.98
2019-01-24T07:45:01.425Z,32.30
2019-01-24T07:46:07.089Z,33.92
2019-01-24T07:47:12.116Z,32.98
2019-01-24T07:48:17.391Z,32.38
2019-01-24T07:49:22.401Z,32.80
2019-01-24T07:50:27.676Z,31.80
2019-01-24T07:51:32.954Z,34.25
2019-01-24T07:52:38.423Z,32.73
2019-01-24T07:53:43.432Z,36.30
2019-01-24T07:54:48.786Z,34.13
2019-01-24T07:55:54.600Z,37.63
2019-01-24T07:56:59.982Z,34.83
2019-01-24T07:58:06.842Z,37.58
2019-01-24T07:59:11.938Z,35.65
2019-01-24T08:00:19.999Z,37.78
2019-01-24T08:01:24.990Z,34.70
2019-01-24T08:02:29.975Z,35.10
2019-01-24T08:03:35.043Z,34.38
2019-01-24T08:04:40.007Z,34.65
2019-01-24T08:05:45.066Z,37.38
2019-01-24T08:06:50.083Z,35.60
2019-01-24T08:07:55.227Z,35.90
2019-01-24T08:09:00.319Z,35.80
2019-01-24T08:10:06.782Z,35.60
2019-01-24T08:11:12.115Z,36.38
2019-01-24T08:12:17.046Z,30.00
2019-01-24T08:13:22.110Z,33.67
2019-01-24T08:14:27.251Z,37.05
2019-01-24T08:15:32.555Z,30.43
2019-01-24T08:16:37.464Z,33.05
2019-01-24T08:17:42.680Z,31.95
2019-01-24T08:18:47.669Z,32.95
2019-01-24T08:19:52.964Z,35.00
2019-01-24T08:20:58.093Z,34.92
2019-01-24T08:22:03.319Z,34.75
2019-01-24T08:23:08.593Z,33.95
2019-01-24T08:24:13.577Z,34.05
2019-01-24T08:25:19.749Z,36.50
2019-01-24T08:26:24.949Z,38.05
2019-01-24T08:27:30.124Z,36.28
2019-01-24T08:28:36.109Z,36.90
2019-01-24T08:29:41.256Z,38.65
2019-01-24T08:30:47.827Z,37.48
2019-01-24T08:31:52.785Z,37.17
2019-01-24T08:32:58.169Z,39.08
2019-01-24T08:34:03.557Z,38.35
2019-01-24T08:35:09.062Z,35.90
2019-01-24T08:36:15.617Z,36.88
2019-01-24T08:37:20.835Z,36.70
2019-01-24T08:38:26.161Z,35.70
2019-01-24T08:39:31.798Z,35.23
2019-01-24T08:40:37.736Z,38.88
2019-01-24T08:41:43.587Z,36.42
2019-01-24T08:42:48.711Z,39.10
2019-01-24T08:43:53.653Z,37.70
2019-01-24T08:44:58.676Z,36.63
2019-01-24T08:46:03.652Z,38.98
2019-01-24T08:47:09.003Z,37.00
2019-01-24T08:48:14.295Z,35.80
2019-01-24T08:49:19.368Z,37.13
2019-01-24T08:50:25.005Z,37.63
2019-01-24T08:51:30.035Z,38.90
2019-01-24T08:52:35.057Z,37.83
2019-01-24T08:53:40.063Z,36.23
2019-01-24T08:54:45.164Z,35.23
2019-01-24T08:55:50.078Z,37.35
2019-01-24T08:56:54.989Z,36.10
2019-01-24T08:58:00.469Z,35.88
2019-01-24T08:59:05.860Z,37.35
2019-01-24T09:00:13.771Z,36.93
2019-01-24T09:01:18.763Z,35.70
2019-01-24T09:02:23.883Z,39.15
2019-01-24T09:03:28.971Z,36.75
2019-01-24T09:04:34.249Z,35.08
2019-01-24T09:05:39.561Z,36.85
2019-01-24T09:06:44.566Z,37.73
2019-01-24T09:07:49.725Z,36.55
2019-01-24T09:08:55.128Z,38.02
2019-01-24T09:10:00.092Z,36.80
2019-01-24T09:11:05.386Z,37.60
2019-01-24T09:12:10.415Z,37.28
2019-01-24T09:13:15.732Z,34.13
2019-01-24T09:14:20.810Z,38.15
2019-01-24T09:15:26.187Z,37.67
2019-01-24T09:16:31.403Z,37.00
2019-01-24T09:17:36.679Z,36.13
2019-01-24T09:18:41.702Z,37.95
2019-01-24T09:19:47.920Z,36.15
2019-01-24T09:20:53.706Z,38.35
2019-01-24T09:21:58.994Z,40.05
2019-01-24T09:23:05.084Z,35.20
2019-01-24T09:24:10.221Z,36.88
2019-01-24T09:25:15.811Z,38.48
2019-01-24T09:26:20.757Z,38.60
2019-01-24T09:27:26.993Z,38.55
2019-01-24T09:28:32.285Z,36.88
2019-01-24T09:29:39.241Z,34.75
2019-01-24T09:30:44.550Z,40.00
2019-01-24T09:31:49.595Z,37.20
2019-01-24T09:32:54.933Z,38.10
2019-01-24T09:34:00.179Z,37.80
2019-01-24T09:35:06.724Z,35.95
2019-01-24T09:36:11.762Z,40.15
2019-01-24T09:37:16.823Z,37.00
2019-01-24T09:38:21.879Z,38.45
2019-01-24T09:39:27.055Z,39.35
2019-01-24T09:40:32.222Z,35.88
2019-01-24T09:41:38.450Z,38.92
2019-01-24T09:42:43.518Z,41.00
2019-01-24T09:43:48.568Z,40.58
2019-01-24T09:44:53.549Z,37.28
2019-01-24T09:45:58.511Z,38.73
2019-01-24T09:47:03.575Z,36.90
2019-01-24T09:48:09.262Z,35.73
2019-01-24T09:49:14.623Z,38.02
2019-01-24T09:50:21.478Z,39.38
2019-01-24T09:51:26.890Z,38.13
2019-01-24T09:52:32.136Z,40.85
2019-01-24T09:53:37.122Z,38.73
2019-01-24T09:54:42.395Z,37.88
2019-01-24T09:55:47.461Z,37.17
2019-01-24T09:56:55.338Z,37.93
2019-01-24T09:58:00.407Z,38.55
2019-01-24T09:59:05.571Z,39.58
2019-01-24T10:00:17.077Z,39.33
2019-01-24T10:01:22.002Z,37.67
2019-01-24T10:02:27.082Z,38.65
2019-01-24T10:03:32.104Z,39.98
2019-01-24T10:04:37.416Z,40.80
2019-01-24T10:05:42.509Z,37.75
2019-01-24T10:06:47.475Z,38.63
2019-01-24T10:07:52.919Z,38.95
2019-01-24T10:08:58.381Z,37.75
2019-01-24T10:10:04.398Z,40.90
2019-01-24T10:11:09.434Z,39.00
2019-01-24T10:12:14.639Z,36.00
2019-01-24T10:13:19.733Z,36.15
2019-01-24T10:14:25.009Z,37.35
2019-01-24T10:15:30.251Z,41.28
2019-01-24T10:16:35.249Z,37.70
2019-01-24T10:17:40.418Z,35.60
2019-01-24T10:18:45.880Z,38.45
2019-01-24T10:19:50.852Z,40.33
2019-01-24T10:20:55.909Z,37.83
2019-01-24T10:22:00.931Z,39.33
2019-01-24T10:23:06.012Z,36.42
2019-01-24T10:24:10.990Z,37.08
2019-01-24T10:25:18.717Z,35.80
2019-01-24T10:26:23.666Z,37.03
2019-01-24T10:27:29.307Z,37.88
2019-01-24T10:28:34.362Z,39.90
2019-01-24T10:29:40.313Z,35.80
2019-01-24T10:30:45.249Z,40.28
2019-01-24T10:31:50.196Z,37.75
2019-01-24T10:32:55.852Z,37.83
2019-01-24T10:34:00.936Z,36.28
2019-01-24T10:35:06.222Z,37.20
2019-01-24T10:36:11.163Z,35.43
2019-01-24T10:37:17.520Z,36.65
2019-01-24T10:38:22.914Z,37.03
2019-01-24T10:39:28.067Z,39.92
2019-01-24T10:40:33.755Z,34.92
2019-01-24T10:41:38.919Z,39.30
2019-01-24T10:42:44.489Z,39.05
2019-01-24T10:43:49.491Z,34.85
2019-01-24T10:44:54.846Z,38.05
2019-01-24T10:46:00.541Z,37.15
2019-01-24T10:47:05.703Z,36.98
2019-01-24T10:48:10.798Z,40.10
2019-01-24T10:49:15.751Z,35.95
2019-01-24T10:50:22.607Z,36.68
2019-01-24T10:51:27.549Z,37.48
2019-01-24T10:52:32.485Z,36.95
2019-01-24T10:53:37.779Z,38.58
2019-01-24T10:54:43.038Z,38.38
2019-01-24T10:55:48.166Z,38.35
2019-01-24T10:56:53.059Z,36.35
2019-01-24T10:58:00.737Z,35.25
2019-01-24T10:59:05.945Z,37.55
2019-01-24T11:00:14.724Z,37.13
2019-01-24T11:01:20.089Z,36.58
2019-01-24T11:02:25.078Z,34.38
2019-01-24T11:03:30.371Z,36.65
2019-01-24T11:04:35.388Z,35.43
2019-01-24T11:05:40.485Z,36.13
2019-01-24T11:06:50.045Z,37.55
2019-01-24T11:07:52.669Z,37.00
2019-01-24T11:08:57.850Z,34.90
2019-01-24T11:10:03.463Z,36.63
2019-01-24T11:11:08.918Z,34.13
2019-01-24T11:12:14.168Z,39.00
2019-01-24T11:13:19.195Z,36.68
2019-01-24T11:14:24.420Z,39.88
2019-01-24T11:15:29.550Z,40.50
2019-01-24T11:16:34.501Z,38.90
2019-01-24T11:17:40.158Z,37.70
2019-01-24T11:18:45.544Z,36.90
2019-01-24T11:19:50.487Z,38.75
2019-01-24T11:20:56.510Z,37.78
2019-01-24T11:22:01.857Z,37.17
2019-01-24T11:23:07.141Z,36.40
2019-01-24T11:24:12.081Z,36.90
2019-01-24T11:25:19.115Z,36.85
2019-01-24T11:26:24.485Z,38.02
2019-01-24T11:27:29.564Z,37.85
2019-01-24T11:28:34.573Z,34.95
2019-01-24T11:29:39.693Z,36.58
2019-01-24T11:30:44.884Z,38.40
2019-01-24T11:31:50.840Z,37.35
2019-01-24T11:32:56.247Z,39.18
2019-01-24T11:34:01.294Z,38.10
2019-01-24T11:35:08.848Z,36.77
2019-01-24T11:36:13.968Z,36.85
2019-01-24T11:37:18.974Z,34.13
2019-01-24T11:38:24.273Z,34.48
2019-01-24T11:39:29.352Z,36.93
2019-01-24T11:40:34.448Z,36.88
2019-01-24T11:41:40.390Z,37.67
2019-01-24T11:42:45.614Z,35.70
2019-01-24T11:43:50.610Z,34.63
2019-01-24T11:44:55.690Z,36.30
2019-01-24T11:46:00.839Z,37.13
2019-01-24T11:47:05.958Z,36.42
2019-01-24T11:48:11.066Z,36.58
2019-01-24T11:49:16.069Z,35.50
2019-01-24T11:50:21.491Z,35.85
2019-01-24T11:51:26.733Z,35.90
2019-01-24T11:52:32.053Z,35.25
2019-01-24T11:53:37.085Z,37.58
2019-01-24T11:54:42.499Z,36.28
2019-01-24T11:55:47.855Z,35.83
2019-01-24T11:56:53.171Z,36.93
2019-01-24T11:57:58.231Z,36.68
2019-01-24T11:59:03.279Z,36.77
2019-01-24T12:00:16.871Z,36.55
2019-01-24T12:01:21.825Z,36.60
2019-01-24T12:02:27.020Z,38.38
2019-01-24T12:03:32.049Z,35.35
2019-01-24T12:04:37.019Z,36.17
2019-01-24T12:05:42.104Z,36.58
2019-01-24T12:06:47.385Z,37.78
2019-01-24T12:07:52.492Z,36.77
2019-01-24T12:08:57.549Z,36.30
2019-01-24T12:10:02.914Z,35.55
2019-01-24T12:11:08.229Z,37.28
2019-01-24T12:12:13.496Z,35.20
2019-01-24T12:13:18.873Z,37.88
2019-01-24T12:14:23.816Z,34.80
2019-01-24T12:15:28.990Z,35.68
2019-01-24T12:16:34.364Z,36.83
2019-01-24T12:17:39.696Z,36.70
2019-01-24T12:18:45.266Z,36.53
2019-01-24T12:19:50.310Z,32.88
2019-01-24T12:20:56.107Z,34.38
2019-01-24T12:22:02.672Z,35.03
2019-01-24T12:23:08.775Z,34.15
2019-01-24T12:24:14.074Z,36.25
2019-01-24T12:25:19.621Z,34.08
2019-01-24T12:26:25.141Z,34.95
2019-01-24T12:27:30.601Z,33.50
2019-01-24T12:28:36.842Z,37.13
2019-01-24T12:29:42.518Z,35.78
2019-01-24T12:30:49.215Z,35.20
2019-01-24T12:31:55.678Z,36.45
2019-01-24T12:33:02.011Z,35.25
2019-01-24T12:34:08.498Z,34.15
2019-01-24T12:35:14.147Z,36.10
2019-01-24T12:36:19.882Z,33.90
2019-01-24T12:37:27.271Z,36.85
2019-01-24T12:38:35.223Z,36.85
2019-01-24T12:39:40.386Z,37.30
2019-01-24T12:40:46.223Z,33.65
2019-01-24T12:41:52.038Z,34.75
2019-01-24T12:42:58.214Z,34.43
2019-01-24T12:44:03.987Z,33.90
2019-01-24T12:45:13.327Z,35.78
2019-01-24T12:46:18.655Z,33.95
2019-01-24T12:47:28.276Z,35.15
2019-01-24T12:48:36.036Z,35.10
2019-01-24T12:49:42.434Z,34.27
2019-01-24T12:50:47.742Z,34.85
2019-01-24T12:51:53.316Z,36.10
2019-01-24T12:52:59.795Z,36.30
2019-01-24T12:54:06.137Z,35.50
2019-01-24T12:55:12.214Z,32.80
2019-01-24T12:56:17.938Z,35.15
2019-01-24T12:57:23.298Z,35.70
2019-01-24T12:58:30.167Z,37.53
2019-01-24T12:59:37.171Z,34.30
2019-01-24T13:00:42.844Z,37.03
2019-01-24T13:01:48.198Z,33.92
2019-01-24T13:02:54.257Z,35.73
2019-01-24T13:03:59.603Z,36.68
2019-01-24T13:05:08.602Z,37.17
2019-01-24T13:06:13.986Z,33.70
2019-01-24T13:07:19.982Z,32.33
2019-01-24T13:08:25.286Z,35.10
2019-01-24T13:09:31.046Z,35.65
2019-01-24T13:10:38.121Z,34.55
2019-01-24T13:11:43.408Z,35.03
2019-01-24T13:12:49.774Z,34.50
2019-01-24T13:13:55.690Z,36.80
2019-01-24T13:15:01.414Z,36.65
2019-01-24T13:16:06.771Z,35.00
2019-01-24T13:17:12.068Z,34.30
2019-01-24T13:18:17.562Z,33.92
2019-01-24T13:19:23.383Z,36.25
2019-01-24T13:20:29.093Z,36.68
2019-01-24T13:21:35.956Z,35.35
2019-01-24T13:22:41.862Z,33.18
2019-01-24T13:23:47.771Z,33.95
2019-01-24T13:24:53.195Z,35.20
2019-01-24T13:25:59.085Z,35.78
2019-01-24T13:27:04.822Z,32.55
2019-01-24T13:28:10.177Z,35.92
2019-01-24T13:29:15.478Z,32.75
2019-01-24T13:30:23.029Z,35.83
2019-01-24T13:31:28.680Z,35.55
2019-01-24T13:32:34.550Z,39.03
2019-01-24T13:33:40.072Z,34.65
2019-01-24T13:34:45.450Z,35.20
2019-01-24T13:35:50.878Z,34.75
2019-01-24T13:36:57.186Z,34.15
2019-01-24T13:38:03.311Z,36.13
2019-01-24T13:39:11.033Z,31.80
2019-01-24T13:40:18.758Z,35.78
2019-01-24T13:41:24.349Z,35.58
2019-01-24T13:42:29.647Z,35.50
2019-01-24T13:43:34.676Z,33.40
2019-01-24T13:44:39.774Z,35.88
2019-01-24T13:45:45.117Z,35.38
2019-01-24T13:46:50.145Z,33.80
2019-01-24T13:47:55.274Z,32.35
2019-01-24T13:49:00.744Z,32.55
2019-01-24T13:50:07.138Z,31.40
2019-01-24T13:51:12.325Z,33.75
2019-01-24T13:52:18.050Z,34.23
2019-01-24T13:53:22.986Z,33.35
2019-01-24T13:54:28.455Z,34.45
2019-01-24T13:55:33.545Z,35.85
2019-01-24T13:56:38.900Z,36.42
2019-01-24T13:57:44.154Z,36.50
2019-01-24T13:58:49.577Z,37.35
2019-01-24T13:59:54.762Z,34.60
2019-01-24T14:00:59.873Z,36.50
2019-01-24T14:02:05.245Z,35.78
2019-01-24T14:03:51.571Z,37.20